Time;durP1;ratioP1;P1;durP2;ratioP2;P2;SDS_P1;SDS_P2;PMS_P1;PMS_P2;Temp;Humidity;BMP_temperature;BMP_pressure;BME280_temperature;BME280_humidity;BME280_pressure;Samples;Min_cycle;Max_cycle;Signal;HPM_P1;HPM_P2
2023/12/27 00:01:27;;;;;;;3.20;1.27;;;;;;;20.87;43.43;102118.34;5057980;28;20038;-64
2023/12/27 00:03:53;;;;;;;3.08;1.70;;;;;;;20.92;43.48;102134.56;5053076;28;20068;-63
2023/12/27 00:06:18;;;;;;;3.42;1.80;;;;;;;20.92;43.33;102131.94;5065862;28;20045;-64
2023/12/27 00:08:45;;;;;;;2.90;1.30;;;;;;;20.90;43.54;102141.84;5059825;28;21172;-64
2023/12/27 00:11:11;;;;;;;2.30;1.42;;;;;;;20.80;43.41;102140.13;5054283;28;20048;-63
2023/12/27 00:13:36;;;;;;;1.70;1.23;;;;;;;20.85;43.47;102147.63;5057376;28;20056;-63
2023/12/27 00:16:02;;;;;;;2.03;1.25;;;;;;;20.83;43.52;102144.31;5063144;28;20040;-64
2023/12/27 00:18:28;;;;;;;3.33;1.73;;;;;;;20.82;43.62;102150.53;5056094;28;20044;-64
2023/12/27 00:20:53;;;;;;;2.00;1.33;;;;;;;20.80;43.52;102147.22;5059520;28;20033;-64
2023/12/27 00:23:19;;;;;;;1.90;1.40;;;;;;;20.78;43.67;102150.03;5058013;28;20836;-64
2023/12/27 00:25:44;;;;;;;2.47;1.60;;;;;;;20.79;43.64;102154.34;5062036;28;20032;-64
2023/12/27 00:28:10;;;;;;;1.95;1.27;;;;;;;20.77;43.49;102139.59;5053467;28;20399;-63
2023/12/27 00:30:36;;;;;;;1.75;1.27;;;;;;;20.72;43.69;102139.25;5072152;28;20082;-64
2023/12/27 00:33:02;;;;;;;3.60;1.20;;;;;;;20.73;43.68;102148.84;5064716;28;20047;-64
2023/12/27 00:35:28;;;;;;;1.85;1.35;;;;;;;20.71;43.55;102142.88;5059088;28;20527;-65
2023/12/27 00:37:54;;;;;;;2.75;1.52;;;;;;;20.73;43.69;102151.50;5062970;28;20131;-63
2023/12/27 00:40:19;;;;;;;3.38;1.20;;;;;;;20.66;43.62;102147.81;5060904;28;20044;-62
2023/12/27 00:42:46;;;;;;;2.65;1.38;;;;;;;20.70;43.47;102149.97;5060157;28;20094;-64
2023/12/27 00:45:12;;;;;;;2.45;1.48;;;;;;;20.66;43.50;102156.56;5062070;28;20036;-63
2023/12/27 00:47:37;;;;;;;2.25;1.30;;;;;;;20.69;43.58;102160.72;5060437;28;20047;-64
2023/12/27 00:50:03;;;;;;;2.42;1.17;;;;;;;20.67;43.44;102150.28;5061164;28;20047;-63
2023/12/27 00:52:29;;;;;;;1.58;1.25;;;;;;;20.65;43.54;102141.69;5060780;28;20040;-64
2023/12/27 00:54:54;;;;;;;1.63;1.35;;;;;;;20.64;43.45;102147.94;5064287;28;20044;-64
2023/12/27 00:57:20;;;;;;;2.00;1.33;;;;;;;20.58;43.69;102148.56;5063185;28;20032;-64
2023/12/27 00:59:47;;;;;;;1.73;1.13;;;;;;;20.59;43.55;102154.69;5066477;28;20131;-64
2023/12/27 01:02:13;;;;;;;2.05;1.50;;;;;;;20.56;43.58;102161.09;5060323;28;20044;-64
2023/12/27 01:04:38;;;;;;;1.52;1.05;;;;;;;20.58;43.56;102167.06;5048600;28;20117;-64
2023/12/27 01:07:04;;;;;;;2.00;1.20;;;;;;;20.57;43.43;102161.94;5069366;28;20036;-64
2023/12/27 01:09:29;;;;;;;2.20;1.10;;;;;;;20.54;43.54;102162.25;5065593;28;20047;-64
2023/12/27 01:11:55;;;;;;;1.58;1.10;;;;;;;20.52;43.53;102162.41;5063755;28;20063;-63
2023/12/27 01:14:20;;;;;;;2.75;1.50;;;;;;;20.51;43.71;102168.69;5065419;28;20045;-64
2023/12/27 01:16:46;;;;;;;2.92;1.70;;;;;;;20.42;43.50;102148.41;5062277;28;20048;-64
2023/12/27 01:19:11;;;;;;;2.70;1.45;;;;;;;20.50;43.67;102165.19;5064200;28;20040;-63
2023/12/27 01:21:37;;;;;;;2.35;1.20;;;;;;;20.28;43.62;102136.50;5063075;28;20036;-63
2023/12/27 01:24:03;;;;;;;2.10;1.25;;;;;;;20.45;43.54;102161.31;5061268;28;20361;-64
2023/12/27 01:26:28;;;;;;;2.65;1.38;;;;;;;20.43;43.79;102158.84;5065741;28;20044;-64
2023/12/27 01:28:54;;;;;;;2.40;0.90;;;;;;;20.44;43.72;102163.16;5058232;28;20043;-65
2023/12/27 01:31:19;;;;;;;2.10;1.40;;;;;;;20.43;43.54;102174.72;5064325;28;20048;-64
2023/12/27 01:33:45;;;;;;;1.48;1.38;;;;;;;20.42;43.48;102170.41;5062698;28;20118;-63
2023/12/27 01:36:11;;;;;;;2.70;1.25;;;;;;;20.42;43.72;102174.88;5065701;28;20056;-64
2023/12/27 01:38:36;;;;;;;3.67;1.80;;;;;;;20.39;43.58;102177.78;5062119;28;20098;-63
2023/12/27 01:41:03;;;;;;;4.53;1.85;;;;;;;20.28;43.58;102162.13;5060738;28;20052;-63
2023/12/27 01:43:29;;;;;;;3.20;1.52;;;;;;;20.37;43.60;102180.59;5058865;28;20124;-63
2023/12/27 01:45:55;;;;;;;1.85;1.23;;;;;;;20.37;43.58;102174.47;5066868;28;20075;-64
2023/12/27 01:48:21;;;;;;;2.60;1.40;;;;;;;20.36;43.65;102170.97;5060851;28;20463;-63
2023/12/27 01:50:51;;;;;;;3.42;1.17;;;;;;;20.31;43.81;102178.56;5064477;28;20044;-63
2023/12/27 01:53:18;;;;;;;3.20;1.63;;;;;;;20.26;43.49;102175.50;5063222;28;20162;-64
2023/12/27 01:55:47;;;;;;;2.53;1.10;;;;;;;20.10;43.71;102148.88;5065757;28;20428;-64
2023/12/27 01:58:13;;;;;;;1.92;1.40;;;;;;;20.29;43.82;102184.94;5063797;28;20064;-63
2023/12/27 02:00:41;;;;;;;2.72;1.30;;;;;;;20.29;43.71;102182.31;5065788;28;20525;-63
2023/12/27 02:03:08;;;;;;;2.30;1.42;;;;;;;20.26;43.62;102182.59;5062772;28;20554;-64
2023/12/27 02:05:35;;;;;;;2.28;1.48;;;;;;;20.23;43.73;102186.38;5043317;28;20044;-64
2023/12/27 02:08:02;;;;;;;3.10;1.55;;;;;;;20.25;43.76;102175.66;5064108;28;20078;-63
2023/12/27 02:10:27;;;;;;;2.50;1.60;;;;;;;20.24;43.75;102177.47;5063949;28;20036;-63
2023/12/27 02:12:54;;;;;;;1.77;1.02;;;;;;;20.16;43.69;102180.88;5062598;28;20051;-63
2023/12/27 02:15:20;;;;;;;1.95;1.25;;;;;;;20.13;43.72;102164.47;5063159;28;20036;-64
2023/12/27 02:17:46;;;;;;;2.80;1.40;;;;;;;20.21;43.78;102178.59;5062631;28;20063;-64
2023/12/27 02:20:11;;;;;;;2.45;1.38;;;;;;;20.20;43.71;102176.09;5064315;28;20052;-64
2023/12/27 02:22:39;;;;;;;3.22;1.30;;;;;;;20.12;43.63;102160.16;5064272;28;20033;-64
2023/12/27 02:25:05;;;;;;;2.70;1.40;;;;;;;20.18;43.71;102167.50;5061347;28;20148;-63
2023/12/27 02:27:30;;;;;;;2.45;1.08;;;;;;;20.17;43.58;102160.53;5062439;28;20032;-63
2023/12/27 02:29:56;;;;;;;3.72;1.30;;;;;;;20.13;43.76;102154.72;5064342;28;20097;-64
2023/12/27 02:32:23;;;;;;;3.33;1.05;;;;;;;20.13;43.83;102151.25;5062333;28;20044;-64
2023/12/27 02:34:49;;;;;;;2.28;1.25;;;;;;;20.11;43.79;102155.88;5065872;28;20121;-64
2023/12/27 02:37:14;;;;;;;4.88;1.80;;;;;;;20.09;43.73;102153.34;5063940;28;20115;-63
2023/12/27 02:39:40;;;;;;;2.00;1.20;;;;;;;20.05;43.91;102146.69;5060668;28;20159;-64
2023/12/27 02:42:05;;;;;;;2.13;1.10;;;;;;;20.08;43.77;102142.91;5064079;28;20047;-64
2023/12/27 02:44:31;;;;;;;1.58;1.02;;;;;;;20.06;43.74;102143.06;5064323;28;20044;-64
2023/12/27 02:46:56;;;;;;;1.33;1.23;;;;;;;20.03;43.83;102134.59;5058789;28;20451;-64
2023/12/27 02:49:22;;;;;;;2.10;1.48;;;;;;;20.03;43.77;102134.59;5061693;28;20461;-64
2023/12/27 02:51:48;;;;;;;2.80;1.35;;;;;;;20.07;43.85;102138.59;5062023;28;20041;-64
2023/12/27 02:54:14;;;;;;;2.92;1.70;;;;;;;20.03;43.83;102130.16;5063933;28;20036;-64
2023/12/27 02:56:40;;;;;;;2.50;1.45;;;;;;;20.02;43.84;102119.72;5061982;28;20582;-64
2023/12/27 02:59:05;;;;;;;1.50;1.33;;;;;;;20.00;43.85;102124.34;5057374;28;20523;-63
2023/12/27 03:01:31;;;;;;;1.80;1.38;;;;;;;19.98;43.97;102123.66;5065634;28;22116;-64
2023/12/27 03:03:56;;;;;;;2.05;1.20;;;;;;;19.89;43.86;102115.63;5064593;28;20051;-63
2023/12/27 03:06:22;;;;;;;2.75;1.33;;;;;;;19.97;43.83;102114.91;5060586;28;20051;-63
2023/12/27 03:08:51;;;;;;;3.22;1.45;;;;;;;19.95;43.96;102110.75;5061711;28;20048;-63
2023/12/27 03:11:18;;;;;;;2.78;1.55;;;;;;;19.97;43.95;102108.78;5062202;28;20105;-63
2023/12/27 03:13:43;;;;;;;1.75;1.15;;;;;;;19.94;43.93;102117.00;5061413;28;20071;-63
2023/12/27 03:16:09;;;;;;;2.10;1.23;;;;;;;19.88;43.92;102094.63;5058635;28;20083;-63
2023/12/27 03:18:35;;;;;;;1.63;1.20;;;;;;;19.86;43.96;102093.94;5059395;28;20097;-64
2023/12/27 03:21:01;;;;;;;2.35;1.15;;;;;;;19.91;43.93;102094.31;5061230;28;20032;-63
2023/12/27 03:23:26;;;;;;;2.42;1.40;;;;;;;19.80;43.94;102092.75;5062321;28;20044;-63
2023/12/27 03:25:53;;;;;;;2.03;1.20;;;;;;;19.88;43.84;102090.16;5047556;28;20378;-63
2023/12/27 03:28:19;;;;;;;1.50;1.10;;;;;;;19.91;43.84;102091.69;5061760;28;20051;-63
2023/12/27 03:30:45;;;;;;;1.73;1.20;;;;;;;19.92;43.85;102098.63;5059800;28;20049;-63
2023/12/27 03:33:11;;;;;;;1.45;1.10;;;;;;;19.89;44.09;102093.66;5071176;28;20043;-63
2023/12/27 03:35:36;;;;;;;1.55;1.20;;;;;;;19.88;43.93;102090.16;5061230;28;20051;-62
2023/12/27 03:38:02;;;;;;;1.30;1.13;;;;;;;19.88;43.94;102097.28;5059810;28;20139;-63
2023/12/27 03:40:28;;;;;;;1.85;1.20;;;;;;;19.87;43.95;102091.16;5063223;28;20035;-64
2023/12/27 03:42:53;;;;;;;1.60;1.10;;;;;;;19.84;43.98;102102.03;5062401;28;20040;-63
2023/12/27 03:45:19;;;;;;;3.30;1.25;;;;;;;19.88;43.88;102100.75;5062934;28;20048;-63
2023/12/27 03:47:45;;;;;;;1.65;1.02;;;;;;;19.84;44.08;102099.38;5059100;28;20044;-63
2023/12/27 03:50:11;;;;;;;2.42;1.40;;;;;;;19.86;43.87;102100.06;5061915;28;20573;-64
2023/12/27 03:52:37;;;;;;;2.90;1.60;;;;;;;19.87;43.89;102096.44;5057352;28;20041;-64
2023/12/27 03:55:03;;;;;;;2.15;1.00;;;;;;;19.86;43.90;102096.59;5063890;28;20412;-63
2023/12/27 03:57:29;;;;;;;2.35;1.17;;;;;;;19.87;43.80;102085.88;5060514;28;20123;-64
2023/12/27 03:59:54;;;;;;;2.05;1.17;;;;;;;19.91;43.84;102091.69;5069253;28;20058;-63
2023/12/27 04:02:20;;;;;;;2.55;1.15;;;;;;;19.95;43.65;102092.22;5064023;28;20790;-64
2023/12/27 04:04:48;;;;;;;2.13;1.23;;;;;;;19.97;43.70;102093.75;5060182;28;20051;-63
2023/12/27 04:07:14;;;;;;;1.98;1.00;;;;;;;19.98;43.66;102099.84;5059648;28;20117;-63
2023/12/27 04:09:40;;;;;;;1.45;1.20;;;;;;;19.98;43.72;102098.03;5063174;28;20459;-63
2023/12/27 04:12:09;;;;;;;3.78;1.58;;;;;;;19.97;43.66;102100.84;5063414;28;20040;-63
2023/12/27 04:14:35;;;;;;;2.08;1.20;;;;;;;19.96;43.82;102107.13;5060554;28;20585;-63
2023/12/27 04:17:00;;;;;;;3.22;1.30;;;;;;;19.95;43.77;102106.28;5061703;28;20040;-63
2023/12/27 04:19:26;;;;;;;1.63;1.10;;;;;;;19.93;43.85;102105.59;5061929;28;20101;-63
2023/12/27 04:21:51;;;;;;;2.65;1.42;;;;;;;19.94;43.81;102103.78;5061273;28;20044;-63
2023/12/27 04:24:17;;;;;;;2.20;1.25;;;;;;;19.96;43.69;102102.66;5059239;28;20044;-63
2023/12/27 04:26:42;;;;;;;1.75;1.20;;;;;;;19.96;43.79;102102.66;5059171;28;20036;-64
2023/12/27 04:29:09;;;;;;;2.15;1.38;;;;;;;19.94;43.79;102093.22;5064840;28;20509;-63
2023/12/27 04:31:36;;;;;;;2.15;1.13;;;;;;;19.94;43.81;102095.88;5062809;28;20028;-64
2023/12/27 04:34:02;;;;;;;2.85;1.75;;;;;;;19.85;43.59;102079.91;5065113;28;21447;-63
2023/12/27 04:36:27;;;;;;;2.35;1.45;;;;;;;19.90;43.78;102080.28;5062933;28;20040;-63
2023/12/27 04:38:53;;;;;;;2.75;1.42;;;;;;;19.89;43.77;102072.50;5066634;28;20479;-63
2023/12/27 04:41:19;;;;;;;1.55;1.20;;;;;;;19.85;43.74;102060.56;5065938;28;20052;-64
2023/12/27 04:43:44;;;;;;;1.98;1.05;;;;;;;19.90;43.77;102063.59;5061989;28;20193;-63
2023/12/27 04:46:10;;;;;;;3.03;1.48;;;;;;;19.86;43.82;102060.41;5067693;28;20044;-63
2023/12/27 04:48:36;;;;;;;1.40;1.08;;;;;;;19.86;43.83;102063.06;5064175;28;20082;-63
2023/12/27 04:51:02;;;;;;;2.50;1.38;;;;;;;19.87;43.78;102061.25;5064669;28;20044;-63
2023/12/27 04:53:27;;;;;;;2.50;1.30;;;;;;;19.87;43.75;102067.34;5064180;28;20532;-64
2023/12/27 04:55:53;;;;;;;2.80;1.23;;;;;;;19.81;43.55;102048.63;5064426;28;20483;-63
2023/12/27 04:58:19;;;;;;;2.50;1.60;;;;;;;19.85;43.84;102050.81;5064087;28;20125;-63
2023/12/27 05:00:44;;;;;;;3.25;1.23;;;;;;;19.76;43.85;102032.41;5058778;28;20037;-63
2023/12/27 05:03:10;;;;;;;2.33;1.38;;;;;;;19.86;43.77;102052.47;5065688;28;20044;-63
2023/12/27 05:05:36;;;;;;;1.77;1.00;;;;;;;19.80;43.87;102049.63;5074716;28;20043;-63
2023/12/27 05:08:01;;;;;;;2.58;1.33;;;;;;;19.83;43.81;102051.97;5063341;28;20724;-63
2023/12/27 05:10:27;;;;;;;2.88;1.63;;;;;;;19.80;43.88;102044.34;5066945;28;20385;-63
2023/12/27 05:12:55;;;;;;;1.42;1.17;;;;;;;19.81;43.84;102049.47;5064771;28;20153;-63
2023/12/27 05:15:20;;;;;;;1.98;1.30;;;;;;;19.82;43.79;102050.28;5063471;28;20056;-63
2023/12/27 05:17:46;;;;;;;2.22;1.17;;;;;;;19.70;43.74;102030.34;5061763;28;20099;-63
2023/12/27 05:20:13;;;;;;;1.73;1.15;;;;;;;19.81;43.77;102051.28;5063776;28;20036;-63
2023/12/27 05:22:40;;;;;;;1.40;0.95;;;;;;;19.78;43.73;102049.78;5066169;28;20120;-62
2023/12/27 05:25:09;;;;;;;1.88;1.20;;;;;;;19.74;43.71;102044.91;5065948;28;20074;-64
2023/12/27 05:27:34;;;;;;;2.53;1.52;;;;;;;19.78;43.84;102060.34;5063439;28;20455;-62
2023/12/27 05:30:02;;;;;;;1.27;0.98;;;;;;;19.77;43.79;102061.31;5063143;28;20044;-63
2023/12/27 05:32:27;;;;;;;1.92;1.00;;;;;;;19.78;43.68;102064.81;5060813;28;20040;-63
2023/12/27 05:34:53;;;;;;;2.33;1.38;;;;;;;19.75;43.41;102055.34;5062706;28;20090;-63
2023/12/27 05:37:20;;;;;;;3.08;1.70;;;;;;;19.78;43.63;102054.22;5066457;28;20029;-62
2023/12/27 05:39:45;;;;;;;2.60;1.10;;;;;;;19.73;43.76;102046.72;5064370;28;20032;-60
2023/12/27 05:42:13;;;;;;;2.38;1.55;;;;;;;19.73;43.66;102043.25;5056946;28;20515;-63
2023/12/27 05:44:39;;;;;;;1.20;1.08;;;;;;;19.73;43.76;102032.69;5064336;28;20044;-63
2023/12/27 05:47:05;;;;;;;3.45;1.50;;;;;;;19.72;43.75;102037.13;5062300;28;20032;-63
2023/12/27 05:49:30;;;;;;;1.92;1.00;;;;;;;19.70;43.71;102040.91;5062544;28;20048;-63
2023/12/27 05:51:56;;;;;;;1.73;1.00;;;;;;;19.70;43.76;102030.34;5059575;28;20025;-63
2023/12/27 05:54:21;;;;;;;2.50;1.58;;;;;;;19.69;43.76;102031.31;5060794;28;20052;-63
2023/12/27 05:56:47;;;;;;;1.77;1.27;;;;;;;19.70;43.63;102031.16;5063885;28;20114;-63
2023/12/27 05:59:13;;;;;;;3.00;1.05;;;;;;;19.69;43.64;102026.03;5062921;28;20082;-63
2023/12/27 06:01:46;;;;;;;1.42;1.02;;;;;;;19.71;43.70;102029.34;5067664;28;20051;-64
2023/12/27 06:04:11;;;;;;;2.00;1.35;;;;;;;19.74;43.67;102023.75;5059157;28;20036;-64
2023/12/27 06:06:36;;;;;;;2.53;1.67;;;;;;;19.71;43.60;102019.63;5063446;28;20037;-64
2023/12/27 06:09:03;;;;;;;1.90;1.40;;;;;;;19.74;43.63;102023.75;5064964;28;20048;-64
2023/12/27 06:11:29;;;;;;;2.40;1.73;;;;;;;19.77;43.49;102015.56;5065010;28;20029;-64
2023/12/27 06:13:54;;;;;;;2.00;1.45;;;;;;;19.77;43.53;102015.56;5063564;28;20541;-63
2023/12/27 06:16:20;;;;;;;2.35;1.42;;;;;;;19.73;43.65;102015.00;5073081;28;20055;-64
2023/12/27 06:18:45;;;;;;;1.75;1.27;;;;;;;19.72;43.64;102001.94;5066192;28;20037;-63
2023/12/27 06:21:11;;;;;;;2.65;1.55;;;;;;;19.72;43.71;102008.06;5065027;28;20044;-63
2023/12/27 06:23:36;;;;;;;2.25;1.35;;;;;;;19.69;43.70;102018.09;5058313;28;20045;-63
2023/12/27 06:26:02;;;;;;;2.03;1.42;;;;;;;19.72;43.63;102016.00;5069640;28;20032;-63
2023/12/27 06:28:28;;;;;;;1.52;1.25;;;;;;;19.68;43.67;102005.88;5063477;28;20427;-63
2023/12/27 06:30:53;;;;;;;1.83;1.15;;;;;;;19.69;43.68;102005.72;5060978;28;20037;-63
2023/12/27 06:33:19;;;;;;;2.53;1.33;;;;;;;19.71;43.66;102001.13;5067162;28;20371;-63
2023/12/27 06:35:44;;;;;;;1.52;1.30;;;;;;;19.64;43.62;101994.78;5060822;28;20044;-63
2023/12/27 06:38:10;;;;;;;3.25;1.30;;;;;;;19.70;43.61;102009.19;5064788;28;20051;-63
2023/12/27 06:40:35;;;;;;;2.72;1.50;;;;;;;19.65;43.63;102000.91;5063172;28;20044;-63
2023/12/27 06:43:02;;;;;;;1.85;1.30;;;;;;;19.69;43.63;102005.72;5078512;28;20380;-63
2023/12/27 06:45:27;;;;;;;1.92;1.30;;;;;;;19.54;43.70;101991.38;5066019;28;20647;-63
2023/12/27 06:47:53;;;;;;;2.70;1.13;;;;;;;19.65;43.70;102007.00;5063236;28;20105;-63
2023/12/27 06:50:19;;;;;;;1.60;1.20;;;;;;;19.65;43.67;102004.38;5061338;28;20037;-63
2023/12/27 06:52:44;;;;;;;1.20;1.00;;;;;;;19.67;43.71;101996.28;5061521;28;20033;-63
2023/12/27 06:55:10;;;;;;;1.60;1.20;;;;;;;19.64;43.77;101997.44;5067350;28;20607;-64
2023/12/27 06:57:35;;;;;;;2.13;1.10;;;;;;;19.66;43.72;101994.63;5058739;28;20056;-63
2023/12/27 07:00:01;;;;;;;2.67;1.50;;;;;;;19.73;43.53;101972.72;5059265;28;20044;-64
2023/12/27 07:02:26;;;;;;;2.03;1.33;;;;;;;19.78;43.37;101951.97;5059225;28;20029;-64
2023/12/27 07:04:52;;;;;;;1.92;1.42;;;;;;;19.95;43.06;101962.69;5057990;28;20048;-63
2023/12/27 07:07:17;;;;;;;2.92;1.83;;;;;;;20.11;43.00;101954.88;5060881;28;20036;-64
2023/12/27 07:09:43;;;;;;;2.50;1.20;;;;;;;20.16;42.60;101958.72;5059124;28;20047;-64
2023/12/27 07:12:09;;;;;;;1.85;1.55;;;;;;;20.35;42.56;101956.84;5059543;28;20048;-64
2023/12/27 07:14:35;;;;;;;1.52;1.27;;;;;;;20.45;42.38;101970.81;5044877;28;20395;-63
2023/12/27 07:17:03;;;;;;;2.33;1.20;;;;;;;20.42;42.44;101969.31;5062315;28;20118;-64
2023/12/27 07:19:29;;;;;;;2.75;1.27;;;;;;;20.41;42.51;101966.84;5066090;28;20052;-64
2023/12/27 07:21:55;;;;;;;1.27;1.08;;;;;;;20.37;42.60;101968.13;5062510;28;20193;-64
2023/12/27 07:24:22;;;;;;;1.27;1.02;;;;;;;20.36;42.59;101967.28;5062903;28;20488;-64
2023/12/27 07:26:48;;;;;;;2.28;1.30;;;;;;;20.34;42.69;101971.91;5059721;28;20044;-64
2023/12/27 07:29:13;;;;;;;1.50;1.17;;;;;;;20.40;42.58;101962.50;5059524;28;20095;-64
2023/12/27 07:31:39;;;;;;;2.05;1.05;;;;;;;20.39;42.69;101963.50;5061853;28;20054;-64
2023/12/27 07:34:04;;;;;;;2.00;1.40;;;;;;;20.36;42.57;101955.88;5059428;28;20447;-64
2023/12/27 07:36:30;;;;;;;3.42;1.35;;;;;;;20.37;42.56;101945.13;5065024;28;20055;-64
2023/12/27 07:38:55;;;;;;;2.42;1.02;;;;;;;20.33;42.57;101943.78;5062319;28;20114;-63
2023/12/27 07:41:21;;;;;;;1.85;1.30;;;;;;;20.31;42.65;101945.75;5042896;28;20388;-64
2023/12/27 07:43:46;;;;;;;2.20;1.20;;;;;;;20.34;42.65;101931.41;5059331;28;20059;-64
2023/12/27 07:46:12;;;;;;;1.90;1.30;;;;;;;20.29;42.76;101931.00;5059049;28;20044;-64
2023/12/27 07:48:37;;;;;;;5.88;1.70;;;;;;;20.23;42.69;101924.53;5060799;28;20037;-64
2023/12/27 07:51:03;;;;;;;1.73;1.30;;;;;;;20.23;42.75;101924.53;5058181;28;20061;-64
2023/12/27 07:53:29;;;;;;;2.38;1.67;;;;;;;20.20;42.83;101927.50;5060177;28;20063;-64
2023/12/27 07:55:55;;;;;;;2.58;1.50;;;;;;;20.31;42.55;101923.78;5061405;28;20044;-64
2023/12/27 07:58:20;;;;;;;3.30;1.38;;;;;;;20.20;42.68;101908.97;5061256;28;20161;-64
2023/12/27 08:00:46;;;;;;;1.67;1.23;;;;;;;20.40;42.46;101917.53;5061207;28;20040;-64
2023/12/27 08:03:12;;;;;;;2.80;1.58;;;;;;;20.62;42.06;101924.13;5057035;28;20114;-63
2023/12/27 08:05:37;;;;;;;2.90;1.50;;;;;;;20.61;42.08;101907.41;5058442;28;20052;-63
2023/12/27 08:08:04;;;;;;;1.63;1.38;;;;;;;20.61;42.23;101918.00;5057638;28;20086;-64
2023/12/27 08:10:30;;;;;;;2.60;1.30;;;;;;;20.58;42.20;101913.03;5058704;28;20040;-64
2023/12/27 08:12:57;;;;;;;1.60;1.50;;;;;;;20.56;42.34;101919.47;5061410;28;20090;-63
2023/12/27 08:15:22;;;;;;;1.75;1.23;;;;;;;20.55;42.23;101915.16;5061182;28;20170;-64
2023/12/27 08:17:48;;;;;;;1.67;1.13;;;;;;;20.57;42.19;101913.19;5055394;28;21942;-64
2023/12/27 08:20:13;;;;;;;1.55;1.45;;;;;;;20.57;42.25;101908.72;5059031;28;20053;-63
2023/12/27 08:22:39;;;;;;;3.22;1.42;;;;;;;20.54;42.19;101910.84;5056923;28;20131;-63
2023/12/27 08:25:10;;;;;;;2.03;1.45;;;;;;;20.48;42.18;101902.56;5059223;28;20091;-65
2023/12/27 08:27:36;;;;;;;1.73;1.30;;;;;;;20.48;42.26;101894.63;5058507;28;20095;-63
2023/12/27 08:30:04;;;;;;;2.42;1.40;;;;;;;20.56;42.29;101896.47;5061041;28;20737;-64
2023/12/27 08:32:30;;;;;;;2.80;1.52;;;;;;;20.61;42.03;101896.00;5058311;28;20037;-64
2023/12/27 08:34:55;;;;;;;4.88;1.73;;;;;;;20.57;42.15;101887.56;5059917;28;20051;-63
2023/12/27 08:37:21;;;;;;;3.08;1.45;;;;;;;20.57;42.14;101890.19;5058833;28;20041;-64
2023/12/27 08:39:46;;;;;;;1.98;1.50;;;;;;;20.56;42.37;101890.34;5077699;28;20464;-65
2023/12/27 08:42:12;;;;;;;1.80;1.38;;;;;;;20.58;42.13;101888.38;5059283;28;20036;-65
2023/12/27 08:44:37;;;;;;;3.03;1.52;;;;;;;20.54;42.08;101890.53;5062589;28;20090;-65
2023/12/27 08:47:03;;;;;;;1.50;1.40;;;;;;;20.51;42.21;101886.38;5061037;28;20044;-64
2023/12/27 08:49:29;;;;;;;2.65;1.58;;;;;;;20.50;42.37;101891.81;5061545;28;20040;-64
2023/12/27 08:51:54;;;;;;;3.42;1.58;;;;;;;20.50;42.37;101887.38;5062820;28;20048;-65
2023/12/27 08:54:20;;;;;;;2.22;1.55;;;;;;;20.42;42.61;101882.03;5059021;28;20036;-65
2023/12/27 08:56:45;;;;;;;2.08;1.60;;;;;;;20.36;42.26;101858.81;5057586;28;20036;-64
2023/12/27 08:59:11;;;;;;;2.05;1.20;;;;;;;21.00;41.60;101888.34;5063294;28;20067;-64
2023/12/27 09:01:37;;;;;;;2.60;1.48;;;;;;;21.71;40.25;101885.97;5060210;28;20036;-64
2023/12/27 09:04:03;;;;;;;1.63;1.52;;;;;;;22.36;39.16;101881.56;5060290;28;20052;-64
2023/12/27 09:06:29;;;;;;;1.63;1.33;;;;;;;22.36;38.91;101866.47;5059057;28;20036;-64
2023/12/27 09:08:54;;;;;;;2.20;1.50;;;;;;;22.40;39.26;101880.22;5058952;28;20036;-64
2023/12/27 09:11:20;;;;;;;2.80;1.50;;;;;;;22.23;39.71;101871.50;5060377;28;20051;-64
2023/12/27 09:13:46;;;;;;;2.00;1.42;;;;;;;22.01;39.90;101873.84;5061907;28;20044;-64
2023/12/27 09:16:11;;;;;;;2.80;1.60;;;;;;;21.82;40.31;101876.84;5061943;28;20052;-64
2023/12/27 09:18:37;;;;;;;1.98;1.33;;;;;;;21.63;40.62;101870.06;5065774;28;20052;-64
2023/12/27 09:21:03;;;;;;;2.30;1.40;;;;;;;21.57;40.93;101862.81;5061297;28;20112;-65
2023/12/27 09:23:28;;;;;;;2.08;1.60;;;;;;;21.49;40.89;101860.13;5058471;28;20051;-64
2023/12/27 09:25:54;;;;;;;2.17;1.20;;;;;;;21.44;41.20;101849.22;5064048;28;20032;-65
2023/12/27 09:28:21;;;;;;;5.68;1.48;;;;;;;21.27;41.18;101829.84;5063208;28;20491;-65
2023/12/27 09:30:47;;;;;;;2.40;1.30;;;;;;;21.26;41.40;101849.38;5063667;28;20065;-66
2023/12/27 09:33:12;;;;;;;2.50;1.30;;;;;;;21.19;41.68;101840.41;5044769;28;20052;-65
2023/12/27 09:35:40;;;;;;;1.85;1.50;;;;;;;21.12;41.61;101836.75;5064650;28;20041;-65
2023/12/27 09:38:05;;;;;;;1.80;1.25;;;;;;;21.10;41.59;101834.25;5051456;28;20862;-65
2023/12/27 09:40:31;;;;;;;3.05;1.55;;;;;;;21.04;41.77;101816.38;5065212;28;20036;-65
2023/12/27 09:42:58;;;;;;;4.03;1.83;;;;;;;21.02;41.69;101799.00;5012295;28;20040;-66
2023/12/27 09:45:25;;;;;;;2.65;1.65;;;;;;;21.24;41.51;101810.75;5051799;28;20041;-68
2023/12/27 09:47:53;;;;;;;2.75;1.60;;;;;;;21.48;41.14;101809.94;5060865;28;20048;-65
2023/12/27 09:50:20;;;;;;;2.20;1.50;;;;;;;21.59;40.55;101776.00;5061871;28;20062;-65
2023/12/27 09:52:47;;;;;;;4.10;1.70;;;;;;;21.86;40.88;101800.44;5060429;28;20041;-65
2023/12/27 09:55:13;;;;;;;2.17;1.50;;;;;;;21.85;40.69;101799.63;5055033;28;20041;-66
2023/12/27 09:57:41;;;;;;;3.95;1.52;;;;;;;22.00;40.63;101789.97;5059708;28;20113;-65
2023/12/27 10:00:10;;;;;;;2.75;1.65;;;;;;;22.03;40.81;101783.50;5014250;28;20616;-67
2023/12/27 10:02:39;;;;;;;7.07;1.88;;;;;;;21.96;40.95;101774.56;5063262;28;20036;-66
2023/12/27 10:05:26;;;;;;;3.47;1.70;;;;;;;22.03;40.76;101772.88;5018906;28;20129;-67
2023/12/27 10:07:52;;;;;;;1.70;1.15;;;;;;;21.98;40.78;101776.06;5038956;28;20036;-67
2023/12/27 10:10:18;;;;;;;1.45;1.25;;;;;;;21.98;40.97;101756.66;5052798;28;20099;-67
2023/12/27 10:12:43;;;;;;;1.45;1.30;;;;;;;21.95;40.74;101749.06;5011039;28;20103;-64
2023/12/27 10:15:09;;;;;;;2.47;1.55;;;;;;;21.69;41.20;101747.47;5061213;28;20053;-64
2023/12/27 10:17:35;;;;;;;5.28;1.83;;;;;;;21.79;41.28;101741.16;5011456;28;20138;-65
2023/12/27 10:20:00;;;;;;;1.85;1.40;;;;;;;21.77;41.14;101730.72;5052990;28;20045;-64
2023/12/27 10:22:27;;;;;;;4.50;1.60;;;;;;;21.64;41.19;101694.13;5015989;28;20040;-64
2023/12/27 10:24:52;;;;;;;1.30;1.15;;;;;;;21.81;41.15;101718.78;5036185;28;20878;-63
2023/12/27 10:27:22;;;;;;;5.72;1.88;;;;;;;21.86;41.34;101707.63;5053924;28;20044;-64
2023/12/27 10:29:47;;;;;;;3.80;1.50;;;;;;;21.67;41.27;101671.75;5002877;28;20110;-65
2023/12/27 10:32:14;;;;;;;5.20;1.77;;;;;;;21.72;41.50;101685.31;5048160;28;20044;-64
2023/12/27 10:34:41;;;;;;;4.07;1.83;;;;;;;21.57;41.26;101695.00;5034571;28;20054;-62
2023/12/27 10:37:11;;;;;;;3.53;1.50;;;;;;;21.44;41.06;101694.69;5040041;28;20060;-63
2023/12/27 10:39:43;;;;;;;4.50;1.92;;;;;;;21.34;41.24;101669.19;5044876;28;20511;-63
2023/12/27 10:42:11;;;;;;;2.00;1.52;;;;;;;21.40;41.48;101663.25;5037572;28;20032;-64
2023/12/27 10:44:36;;;;;;;3.67;1.40;;;;;;;21.34;41.82;101671.84;5065936;28;20147;-64
2023/12/27 10:47:04;;;;;;;3.72;1.55;;;;;;;21.34;41.71;101655.97;5015456;28;20048;-64
2023/12/27 10:49:31;;;;;;;3.45;1.70;;;;;;;21.14;41.49;101614.91;5061485;28;20047;-63
2023/12/27 10:51:59;;;;;;;2.72;1.40;;;;;;;21.31;41.97;101635.09;5055766;28;20475;-64
2023/12/27 10:54:25;;;;;;;4.75;1.73;;;;;;;21.29;42.00;101628.31;5063370;28;20036;-63
2023/12/27 10:56:53;;;;;;;7.63;2.20;;;;;;;21.26;41.71;101623.38;5018350;28;20147;-65
2023/12/27 10:59:19;;;;;;;2.65;1.52;;;;;;;21.19;42.09;101617.09;5063652;28;20269;-64
2023/12/27 11:01:46;;;;;;;2.72;1.70;;;;;;;21.18;42.07;101610.94;5012396;28;20589;-65
2023/12/27 11:04:15;;;;;;;6.97;1.60;;;;;;;21.16;41.92;101606.81;5061402;28;20047;-64
2023/12/27 11:06:42;;;;;;;2.85;1.50;;;;;;;21.12;41.90;101599.19;4999601;28;20416;-65
2023/12/27 11:09:09;;;;;;;2.55;1.48;;;;;;;21.06;42.29;101588.47;5078629;28;20570;-65
2023/12/27 11:11:39;;;;;;;3.13;1.77;;;;;;;21.05;42.02;101589.47;5012159;28;20070;-66
2023/12/27 11:14:07;;;;;;;2.22;1.67;;;;;;;20.92;42.08;101570.63;5045889;28;20877;-65
2023/12/27 11:16:34;;;;;;;2.17;1.60;;;;;;;21.02;42.20;101574.75;5058305;28;20036;-66
2023/12/27 11:19:01;;;;;;;3.10;1.73;;;;;;;21.00;42.07;101563.47;5004618;28;20476;-63